createdAt,value
2017-05-06T00:00:05.176Z,29.2
2017-05-06T00:01:05.116Z,29.2
2017-05-06T00:02:05.190Z,29.2
2017-05-06T00:03:05.303Z,29.2
2017-05-06T00:04:05.288Z,29.2
2017-05-06T00:05:05.624Z,29.2
2017-05-06T00:06:06.350Z,29.2
2017-05-06T00:07:05.404Z,29.2
2017-05-06T00:08:06.523Z,29.2
2017-05-06T00:09:06.470Z,29.2
2017-05-06T00:10:06.496Z,29.2
2017-05-06T00:11:05.882Z,29.2
2017-05-06T00:12:06.608Z,29.2
2017-05-06T00:13:06.698Z,29.2
2017-05-06T00:14:05.799Z,29.2
2017-05-06T00:15:06.848Z,29.2
2017-05-06T00:16:05.996Z,29.2
2017-05-06T00:17:07.218Z,29.2
2017-05-06T00:18:07.080Z,29.2
2017-05-06T00:19:07.119Z,29.2
2017-05-06T00:20:07.146Z,29.2
2017-05-06T00:21:06.018Z,29.2
2017-05-06T00:22:06.082Z,29.2
2017-05-06T00:23:06.551Z,29.2
2017-05-06T00:24:06.199Z,29.2
2017-05-06T00:25:07.277Z,29.1
2017-05-06T00:26:07.438Z,29.2
2017-05-06T00:27:07.494Z,29.2
2017-05-06T00:28:06.376Z,29.1
2017-05-06T00:29:07.822Z,29.1
2017-05-06T00:30:07.518Z,29.1
2017-05-06T00:31:06.559Z,29.2
2017-05-06T00:32:07.642Z,29.2
2017-05-06T00:33:06.546Z,29.2
2017-05-06T00:34:07.694Z,29.1
2017-05-06T00:35:08.122Z,29.1
2017-05-06T00:36:06.870Z,29.1
2017-05-06T00:37:06.797Z,29.2
2017-05-06T00:38:08.682Z,29.2
2017-05-06T00:39:08.075Z,29.2
2017-05-06T00:40:08.069Z,29.2
2017-05-06T00:41:08.369Z,29.2
2017-05-06T00:42:08.158Z,29.2
2017-05-06T00:43:08.320Z,29.2
2017-05-06T00:44:07.214Z,29.2
2017-05-06T00:45:08.360Z,29.2
2017-05-06T00:46:07.254Z,29.2
2017-05-06T00:47:07.701Z,29.2
2017-05-06T00:48:08.494Z,29.2
2017-05-06T00:49:08.797Z,29.2
2017-05-06T00:50:08.603Z,29.2
2017-05-06T00:51:07.562Z,29.1
2017-05-06T00:52:08.042Z,29.1
2017-05-06T00:53:08.892Z,29.1
2017-05-06T00:54:08.687Z,29.1
2017-05-06T00:55:08.760Z,29.1
2017-05-06T00:56:07.867Z,29.1
2017-05-06T00:57:07.936Z,29.1
2017-05-06T00:58:07.910Z,29.1
2017-05-06T00:59:09.356Z,29.1
2017-05-06T01:00:08.083Z,29.1
2017-05-06T01:01:09.744Z,29.1
2017-05-06T01:02:08.268Z,29.1
2017-05-06T01:03:08.244Z,29.1
2017-05-06T01:04:08.333Z,29.1
2017-05-06T01:05:08.639Z,29.1
2017-05-06T01:06:08.368Z,29.1
2017-05-06T01:07:10.129Z,29.1
2017-05-06T01:08:09.597Z,29.1
2017-05-06T01:09:10.561Z,29.1
2017-05-06T01:10:09.672Z,29.1
2017-05-06T01:11:10.681Z,29.1
2017-05-06T01:12:09.720Z,29.1
2017-05-06T01:13:08.715Z,29.1
2017-05-06T01:14:09.761Z,29.1
2017-05-06T01:15:12.220Z,29.1
2017-05-06T01:16:09.854Z,29.1
2017-05-06T01:17:10.219Z,29.1
2017-05-06T01:18:09.001Z,29.1
2017-05-06T01:19:10.034Z,29.1
2017-05-06T01:20:09.068Z,29.1
2017-05-06T01:21:09.236Z,29.1
2017-05-06T01:22:10.270Z,29.1
2017-05-06T01:23:11.316Z,29.1
2017-05-06T01:24:10.453Z,29.1
2017-05-06T01:25:09.475Z,29.1
2017-05-06T01:26:09.412Z,29.1
2017-05-06T01:27:09.490Z,29.1
2017-05-06T01:28:09.575Z,29.1
2017-05-06T01:29:09.836Z,29.1
2017-05-06T01:30:10.765Z,29.1
2017-05-06T01:31:10.835Z,29.1
2017-05-06T01:32:10.787Z,29.1
2017-05-06T01:33:10.818Z,29.1
2017-05-06T01:34:09.761Z,29.1
2017-05-06T01:35:11.152Z,29.1
2017-05-06T01:36:09.934Z,29.1
2017-05-06T01:37:11.013Z,29.1
2017-05-06T01:38:11.169Z,29.1
2017-05-06T01:39:10.084Z,29.1
2017-05-06T01:40:11.248Z,29.1
2017-05-06T01:41:11.476Z,29.1
2017-05-06T01:42:10.233Z,29.1
2017-05-06T01:43:10.307Z,29.1
2017-05-06T01:44:10.407Z,29.1
2017-05-06T01:45:11.943Z,29.1
2017-05-06T01:46:11.951Z,29.1
2017-05-06T01:47:11.726Z,29.1
2017-05-06T01:48:11.778Z,29.1
2017-05-06T01:49:10.898Z,29.1
2017-05-06T01:50:10.923Z,29.1
2017-05-06T01:51:11.980Z,29.1
2017-05-06T01:52:12.358Z,29.1
2017-05-06T01:53:12.021Z,29.1
2017-05-06T01:54:11.136Z,29.1
2017-05-06T01:55:12.201Z,29.1
2017-05-06T01:56:11.129Z,29.1
2017-05-06T01:57:11.298Z,29.1
2017-05-06T01:58:12.604Z,29.1
2017-05-06T01:59:11.400Z,29.1
2017-05-06T02:00:11.382Z,29.1
2017-05-06T02:01:11.438Z,29.1
2017-05-06T02:02:11.597Z,29.1
2017-05-06T02:03:12.658Z,29.1
2017-05-06T02:04:13.081Z,29.1
2017-05-06T02:05:12.749Z,29.1
2017-05-06T02:06:12.773Z,29.1
2017-05-06T02:07:11.808Z,29.1
2017-05-06T02:08:12.879Z,29.1
2017-05-06T02:09:12.983Z,29.1
2017-05-06T02:10:12.166Z,29.1
2017-05-06T02:11:11.904Z,29.1
2017-05-06T02:12:13.097Z,29.1
2017-05-06T02:13:12.124Z,29.1
2017-05-06T02:14:12.091Z,29.1
2017-05-06T02:15:13.305Z,29.1
2017-05-06T02:16:13.648Z,29.1
2017-05-06T02:17:13.297Z,29.1
2017-05-06T02:18:12.414Z,29.1
2017-05-06T02:19:12.458Z,29.1
2017-05-06T02:20:12.403Z,29.1
2017-05-06T02:21:12.537Z,29.1
2017-05-06T02:22:12.815Z,29.1
2017-05-06T02:23:13.643Z,29.1
2017-05-06T02:24:12.770Z,29.1
2017-05-06T02:25:13.876Z,29.1
2017-05-06T02:26:12.773Z,29.1
2017-05-06T02:27:13.997Z,29.1
2017-05-06T02:28:13.273Z,29.1
2017-05-06T02:29:12.936Z,29.1
2017-05-06T02:30:14.060Z,29.1
2017-05-06T02:31:14.075Z,29.1
2017-05-06T02:32:14.171Z,29.1
2017-05-06T02:33:14.226Z,29.1
2017-05-06T02:34:13.485Z,29.1
2017-05-06T02:35:13.306Z,29.1
2017-05-06T02:36:13.278Z,29.1
2017-05-06T02:37:13.327Z,29.1
2017-05-06T02:38:14.580Z,29.1
2017-05-06T02:39:13.898Z,29.1
2017-05-06T02:40:14.738Z,29.1
2017-05-06T02:41:14.744Z,29.1
2017-05-06T02:42:14.846Z,29.1
2017-05-06T02:43:13.851Z,29.1
2017-05-06T02:44:14.904Z,29.1
2017-05-06T02:45:14.180Z,29.1
2017-05-06T02:46:13.987Z,29.1
2017-05-06T02:47:13.996Z,29.1
2017-05-06T02:48:15.035Z,29.1
2017-05-06T02:49:15.038Z,29.1
2017-05-06T02:50:14.074Z,29.1
2017-05-06T02:51:15.340Z,29.1
2017-05-06T02:52:15.217Z,29.1
2017-05-06T02:53:15.205Z,29.1
2017-05-06T02:54:15.220Z,29.1
2017-05-06T02:55:14.150Z,29.1
2017-05-06T02:56:14.240Z,29.1
2017-05-06T02:57:14.687Z,29.1
2017-05-06T02:58:15.489Z,29.1
2017-05-06T02:59:15.448Z,29.1
2017-05-06T03:00:15.435Z,29.1
2017-05-06T03:01:15.832Z,29.1
2017-05-06T03:02:15.549Z,29.1
2017-05-06T03:03:15.847Z,29.1
2017-05-06T03:04:14.559Z,29.1
2017-05-06T03:05:14.549Z,29.1
2017-05-06T03:06:14.600Z,29.1
2017-05-06T03:07:14.701Z,29.1
2017-05-06T03:08:15.713Z,29.1
2017-05-06T03:09:16.170Z,29.1
2017-05-06T03:10:15.909Z,29.1
2017-05-06T03:11:14.870Z,29.1
2017-05-06T03:12:15.983Z,29.1
2017-05-06T03:13:15.954Z,29.1
2017-05-06T03:14:14.984Z,29.1
2017-05-06T03:15:16.454Z,29.1
2017-05-06T03:16:15.106Z,29.1
2017-05-06T03:17:15.162Z,29.1
2017-05-06T03:18:15.214Z,29.1
2017-05-06T03:19:16.335Z,29.1
2017-05-06T03:20:16.373Z,29.1
2017-05-06T03:21:15.667Z,29.1
2017-05-06T03:22:16.517Z,29.1
2017-05-06T03:23:16.456Z,29.1
2017-05-06T03:24:15.567Z,29.1
2017-05-06T03:25:16.607Z,29.1
2017-05-06T03:26:15.608Z,29.1
2017-05-06T03:27:16.056Z,29.1
2017-05-06T03:28:16.848Z,29.1
2017-05-06T03:29:15.758Z,29.1
2017-05-06T03:30:16.991Z,29.1
2017-05-06T03:31:15.866Z,29.1
2017-05-06T03:32:15.932Z,29
2017-05-06T03:33:16.375Z,29.1
2017-05-06T03:34:16.062Z,29.1
2017-05-06T03:35:17.227Z,29
2017-05-06T03:36:17.375Z,29.1
2017-05-06T03:37:17.324Z,29.1
2017-05-06T03:38:16.437Z,29.1
2017-05-06T03:39:16.691Z,29.1
2017-05-06T03:40:17.535Z,29.1
2017-05-06T03:41:17.703Z,29.1
2017-05-06T03:42:17.739Z,29.1
2017-05-06T03:43:16.605Z,29.1
2017-05-06T03:44:16.680Z,29.1
2017-05-06T03:45:17.110Z,29
2017-05-06T03:46:17.881Z,29.1
2017-05-06T03:47:17.984Z,29
2017-05-06T03:48:17.993Z,29
2017-05-06T03:49:17.975Z,29.1
2017-05-06T03:50:17.020Z,29.1
2017-05-06T03:51:18.415Z,29.1
2017-05-06T03:52:17.078Z,29.1
2017-05-06T03:53:18.303Z,29.1
2017-05-06T03:54:17.219Z,29.1
2017-05-06T03:55:17.300Z,29.1
2017-05-06T03:56:18.524Z,29.1
2017-05-06T03:57:17.731Z,29.1
2017-05-06T03:58:17.479Z,29
2017-05-06T03:59:18.510Z,29.1
2017-05-06T04:00:17.576Z,29.1
2017-05-06T04:01:18.611Z,29.1
2017-05-06T04:02:18.639Z,29.1
2017-05-06T04:03:19.002Z,29
2017-05-06T04:04:17.824Z,29.1
2017-05-06T04:05:18.971Z,29.1
2017-05-06T04:06:17.954Z,29.1
2017-05-06T04:07:18.980Z,29
2017-05-06T04:08:18.126Z,29
2017-05-06T04:09:19.334Z,29
2017-05-06T04:10:18.141Z,29
2017-05-06T04:11:18.216Z,29
2017-05-06T04:12:19.359Z,29
2017-05-06T04:13:19.369Z,29
2017-05-06T04:14:18.381Z,29
2017-05-06T04:15:18.631Z,29
2017-05-06T04:16:18.395Z,29
2017-05-06T04:17:19.492Z,29
2017-05-06T04:18:19.531Z,29
2017-05-06T04:19:19.497Z,29
2017-05-06T04:20:18.585Z,29
2017-05-06T04:21:18.830Z,29
2017-05-06T04:22:18.582Z,29
2017-05-06T04:23:19.703Z,29
2017-05-06T04:24:19.784Z,29
2017-05-06T04:25:18.685Z,29
2017-05-06T04:26:19.804Z,29
2017-05-06T04:27:19.168Z,29
2017-05-06T04:28:19.960Z,29
2017-05-06T04:29:20.027Z,29
2017-05-06T04:30:20.010Z,29
2017-05-06T04:31:18.989Z,29
2017-05-06T04:32:20.042Z,29
2017-05-06T04:33:19.314Z,29
2017-05-06T04:34:19.087Z,29
2017-05-06T04:35:19.270Z,28.9
2017-05-06T04:36:19.221Z,28.9
2017-05-06T04:37:20.414Z,29
2017-05-06T04:38:19.333Z,28.9
2017-05-06T04:39:19.665Z,28.9
2017-05-06T04:40:20.504Z,28.9
2017-05-06T04:41:20.517Z,28.9
2017-05-06T04:42:20.670Z,28.9
2017-05-06T04:43:20.701Z,28.9
2017-05-06T04:44:19.709Z,28.9
2017-05-06T04:45:21.012Z,28.9
2017-05-06T04:46:19.714Z,28.9
2017-05-06T04:47:20.856Z,28.9
2017-05-06T04:48:19.880Z,28.9
2017-05-06T04:49:20.923Z,28.9
2017-05-06T04:50:20.936Z,28.9
2017-05-06T04:51:20.168Z,28.9
2017-05-06T04:52:21.065Z,28.9
2017-05-06T04:53:21.035Z,28.9
2017-05-06T04:54:21.200Z,28.9
2017-05-06T04:55:21.258Z,28.9
2017-05-06T04:56:21.338Z,28.9
2017-05-06T04:57:20.583Z,28.9
2017-05-06T04:58:21.387Z,28.9
2017-05-06T04:59:20.257Z,28.9
2017-05-06T05:00:20.420Z,28.8
2017-05-06T05:01:20.492Z,28.8
2017-05-06T05:02:20.461Z,28.8
2017-05-06T05:03:20.814Z,28.8
2017-05-06T05:04:21.617Z,28.8
2017-05-06T05:05:21.674Z,28.8
2017-05-06T05:06:20.599Z,28.8
2017-05-06T05:07:21.830Z,28.8
2017-05-06T05:08:20.762Z,28.8
2017-05-06T05:09:22.329Z,28.8
2017-05-06T05:10:20.916Z,28.8
2017-05-06T05:11:21.010Z,28.8
2017-05-06T05:12:22.054Z,28.8
2017-05-06T05:13:21.063Z,28.8
2017-05-06T05:14:21.216Z,28.8
2017-05-06T05:15:21.558Z,28.8
2017-05-06T05:16:21.205Z,28.8
2017-05-06T05:17:21.337Z,28.8
2017-05-06T05:18:22.428Z,28.7
2017-05-06T05:19:21.348Z,28.7
2017-05-06T05:20:22.482Z,28.7
2017-05-06T05:21:21.818Z,28.7
2017-05-06T05:22:22.723Z,28.7
2017-05-06T05:23:21.692Z,28.7
2017-05-06T05:24:21.757Z,28.7
2017-05-06T05:25:22.818Z,28.7
2017-05-06T05:26:22.811Z,28.7
2017-05-06T05:27:22.127Z,28.7
2017-05-06T05:28:21.985Z,28.7
2017-05-06T05:29:23.103Z,28.7
2017-05-06T05:30:23.063Z,28.7
2017-05-06T05:31:22.169Z,28.7
2017-05-06T05:32:22.217Z,28.7
2017-05-06T05:33:22.471Z,28.7
2017-05-06T05:34:23.406Z,28.7
2017-05-06T05:35:23.391Z,28.7
2017-05-06T05:36:22.489Z,28.6
2017-05-06T05:37:22.562Z,28.6
2017-05-06T05:38:23.903Z,28.6
2017-05-06T05:39:23.588Z,28.6
2017-05-06T05:40:22.548Z,28.6
2017-05-06T05:41:23.771Z,28.6
2017-05-06T05:42:22.770Z,28.6
2017-05-06T05:43:23.759Z,28.6
2017-05-06T05:44:22.978Z,28.5
2017-05-06T05:45:23.856Z,28.5
2017-05-06T05:46:22.864Z,28.5
2017-05-06T05:47:23.834Z,28.5
2017-05-06T05:48:22.885Z,28.5
2017-05-06T05:49:23.919Z,28.4
2017-05-06T05:50:23.240Z,28.4
2017-05-06T05:51:22.988Z,28.4
2017-05-06T05:52:24.089Z,28.4
2017-05-06T05:53:23.150Z,28.4
2017-05-06T05:54:23.205Z,28.4
2017-05-06T05:55:24.311Z,28.3
2017-05-06T05:56:24.584Z,28.3
2017-05-06T05:57:23.231Z,28.3
2017-05-06T05:58:24.470Z,28.3
2017-05-06T05:59:24.537Z,28.3
2017-05-06T06:00:24.583Z,28.3
2017-05-06T06:01:23.577Z,28.3
2017-05-06T06:02:23.639Z,28.3
2017-05-06T06:03:24.795Z,28.3
2017-05-06T06:04:23.708Z,28.2
2017-05-06T06:05:24.864Z,28.2
2017-05-06T06:06:24.901Z,28.2
2017-05-06T06:07:24.941Z,28.2
2017-05-06T06:08:23.883Z,28.1
2017-05-06T06:09:25.056Z,28.1
2017-05-06T06:10:23.921Z,28.1
2017-05-06T06:11:25.056Z,28.1
2017-05-06T06:12:23.964Z,28.1
2017-05-06T06:13:25.128Z,28.1
2017-05-06T06:14:24.157Z,28.1
2017-05-06T06:15:25.310Z,28
2017-05-06T06:16:25.301Z,28
2017-05-06T06:17:25.348Z,28
2017-05-06T06:18:25.355Z,28
2017-05-06T06:19:24.388Z,28
2017-05-06T06:20:24.486Z,28
2017-05-06T06:21:25.557Z,28
2017-05-06T06:22:24.593Z,28
2017-05-06T06:23:25.731Z,28
2017-05-06T06:24:25.833Z,27.9
2017-05-06T06:25:24.758Z,28
2017-05-06T06:26:24.753Z,28
2017-05-06T06:27:25.920Z,28
2017-05-06T06:28:25.879Z,28
2017-05-06T06:29:25.944Z,28
2017-05-06T06:30:26.043Z,28
2017-05-06T06:31:26.007Z,28
2017-05-06T06:32:26.124Z,28
2017-05-06T06:33:26.255Z,28
2017-05-06T06:34:26.158Z,28
2017-05-06T06:35:25.203Z,28
2017-05-06T06:36:26.319Z,27.9
2017-05-06T06:37:25.941Z,27.9
2017-05-06T06:38:26.739Z,27.9
2017-05-06T06:39:25.433Z,27.9
2017-05-06T06:40:26.553Z,27.9
2017-05-06T06:41:25.534Z,27.9
2017-05-06T06:42:26.619Z,27.9
2017-05-06T06:43:26.665Z,27.9
2017-05-06T06:44:26.746Z,27.9
2017-05-06T06:45:26.732Z,27.9
2017-05-06T06:46:25.662Z,27.9
2017-05-06T06:47:26.888Z,27.9
2017-05-06T06:48:25.897Z,27.9
2017-05-06T06:49:26.977Z,27.9
2017-05-06T06:50:27.057Z,27.9
2017-05-06T06:51:27.139Z,27.8
2017-05-06T06:52:26.122Z,27.8
2017-05-06T06:53:27.893Z,27.8
2017-05-06T06:54:27.293Z,27.8
2017-05-06T06:55:26.224Z,27.8
2017-05-06T06:56:27.343Z,27.8
2017-05-06T06:57:26.377Z,27.8
2017-05-06T06:58:27.444Z,27.8
2017-05-06T06:59:27.589Z,27.8
2017-05-06T07:00:26.529Z,27.8
2017-05-06T07:01:26.598Z,27.8
2017-05-06T07:02:27.729Z,27.7
2017-05-06T07:03:27.769Z,27.7
2017-05-06T07:04:26.726Z,27.7
2017-05-06T07:05:26.830Z,27.7
2017-05-06T07:06:26.920Z,27.7
2017-05-06T07:07:27.626Z,27.7
2017-05-06T07:08:28.106Z,27.7
2017-05-06T07:09:28.070Z,27.7
2017-05-06T07:10:28.128Z,27.7
2017-05-06T07:11:28.265Z,27.7
2017-05-06T07:12:27.122Z,27.7
2017-05-06T07:13:27.274Z,27.6
2017-05-06T07:14:27.325Z,27.6
2017-05-06T07:15:28.329Z,27.6
2017-05-06T07:16:27.407Z,27.6
2017-05-06T07:17:28.468Z,27.6
2017-05-06T07:18:28.586Z,27.6
2017-05-06T07:19:29.825Z,27.6
2017-05-06T07:20:28.921Z,27.5
2017-05-06T07:21:27.548Z,27.5
2017-05-06T07:22:27.692Z,27.5
2017-05-06T07:23:27.665Z,27.5
2017-05-06T07:24:28.867Z,27.5
2017-05-06T07:25:27.908Z,27.4
2017-05-06T07:26:28.888Z,27.4
2017-05-06T07:27:28.034Z,27.4
2017-05-06T07:28:29.030Z,27.4
2017-05-06T07:29:28.047Z,27.3
2017-05-06T07:30:28.150Z,27.3
2017-05-06T07:31:28.215Z,27.3
2017-05-06T07:32:28.460Z,27.3
2017-05-06T07:33:28.274Z,27.3
2017-05-06T07:34:29.339Z,27.2
2017-05-06T07:35:30.190Z,27.2
2017-05-06T07:36:29.552Z,27.2
2017-05-06T07:37:29.144Z,27.2
2017-05-06T07:38:30.603Z,27.2
2017-05-06T07:39:29.782Z,27.1
2017-05-06T07:40:30.360Z,27.1
2017-05-06T07:41:31.060Z,27.1
2017-05-06T07:42:29.328Z,27.1
2017-05-06T07:43:29.436Z,27.1
2017-05-06T07:44:31.503Z,27.1
2017-05-06T07:45:29.862Z,27
2017-05-06T07:46:28.940Z,27
2017-05-06T07:47:29.912Z,27
2017-05-06T07:48:29.921Z,27
2017-05-06T07:49:30.061Z,26.9
2017-05-06T07:50:30.409Z,26.9
2017-05-06T07:51:30.339Z,26.9
2017-05-06T07:52:30.934Z,26.9
2017-05-06T07:53:29.924Z,26.8
2017-05-06T07:54:31.020Z,26.8
2017-05-06T07:55:30.470Z,26.8
2017-05-06T07:56:29.690Z,26.8
2017-05-06T07:57:30.570Z,26.9
2017-05-06T07:58:29.587Z,26.9
2017-05-06T07:59:30.205Z,26.9
2017-05-06T08:00:30.242Z,27
2017-05-06T08:01:29.645Z,27
2017-05-06T08:02:31.266Z,27
2017-05-06T08:03:29.721Z,27.1
2017-05-06T08:04:31.318Z,27.1
2017-05-06T08:05:29.859Z,27.1
2017-05-06T08:06:30.904Z,27.2
2017-05-06T08:07:31.007Z,27.2
2017-05-06T08:08:30.879Z,27.2
2017-05-06T08:09:30.079Z,27.2
2017-05-06T08:10:30.633Z,27.3
2017-05-06T08:11:30.818Z,27.3
2017-05-06T08:12:31.759Z,27.3
2017-05-06T08:13:30.147Z,27.3
2017-05-06T08:14:32.050Z,27.3
2017-05-06T08:15:31.220Z,27.3
2017-05-06T08:16:31.406Z,27.3
2017-05-06T08:17:32.158Z,27.3
2017-05-06T08:18:31.410Z,27.3
2017-05-06T08:19:30.525Z,27.3
2017-05-06T08:20:31.920Z,27.3
2017-05-06T08:21:31.629Z,27.3
2017-05-06T08:22:31.656Z,27.3
2017-05-06T08:23:31.668Z,27.3
2017-05-06T08:24:31.848Z,27.3
2017-05-06T08:25:30.761Z,27.3
2017-05-06T08:26:31.186Z,27.3
2017-05-06T08:27:30.990Z,27.3
2017-05-06T08:28:31.109Z,27.3
2017-05-06T08:29:32.119Z,27.3
2017-05-06T08:30:31.207Z,27.3
2017-05-06T08:31:31.253Z,27.3
2017-05-06T08:32:31.515Z,27.3
2017-05-06T08:33:31.228Z,27.3
2017-05-06T08:34:31.304Z,27.3
2017-05-06T08:35:32.472Z,27.4
2017-05-06T08:36:33.061Z,27.4
2017-05-06T08:37:31.403Z,27.4
2017-05-06T08:38:32.775Z,27.4
2017-05-06T08:39:31.486Z,27.5
2017-05-06T08:40:31.515Z,27.5
2017-05-06T08:41:33.380Z,27.5
2017-05-06T08:42:33.334Z,27.5
2017-05-06T08:43:31.706Z,27.5
2017-05-06T08:44:33.095Z,27.5
2017-05-06T08:45:32.864Z,27.5
2017-05-06T08:46:31.928Z,27.5
2017-05-06T08:47:31.876Z,27.6
2017-05-06T08:48:34.220Z,27.6
2017-05-06T08:49:32.004Z,27.6
2017-05-06T08:50:33.277Z,27.6
2017-05-06T08:51:33.076Z,27.6
2017-05-06T08:52:32.062Z,27.6
2017-05-06T08:53:33.184Z,27.6
2017-05-06T08:54:33.235Z,27.6
2017-05-06T08:55:33.390Z,27.6
2017-05-06T08:56:33.709Z,27.6
2017-05-06T08:57:34.093Z,27.6
2017-05-06T08:58:32.490Z,27.6
2017-05-06T08:59:33.594Z,27.6
2017-05-06T09:00:32.576Z,27.6
2017-05-06T09:01:32.591Z,27.6
2017-05-06T09:02:32.958Z,27.6
2017-05-06T09:03:32.686Z,27.6
2017-05-06T09:04:32.807Z,27.6
2017-05-06T09:05:32.832Z,27.6
2017-05-06T09:06:32.841Z,27.7
2017-05-06T09:07:32.743Z,27.7
2017-05-06T09:08:34.234Z,27.7
2017-05-06T09:09:32.829Z,27.7
2017-05-06T09:10:34.677Z,27.7
2017-05-06T09:11:33.018Z,27.7
2017-05-06T09:12:33.054Z,27.7
2017-05-06T09:13:32.980Z,27.6
2017-05-06T09:14:33.270Z,27.6
2017-05-06T09:15:34.664Z,27.6
2017-05-06T09:16:34.833Z,27.6
2017-05-06T09:17:34.230Z,27.6
2017-05-06T09:18:34.300Z,27.6
2017-05-06T09:19:33.257Z,27.6
2017-05-06T09:20:34.588Z,27.7
2017-05-06T09:21:33.382Z,27.7
2017-05-06T09:22:33.325Z,27.7
2017-05-06T09:23:33.486Z,27.7
2017-05-06T09:24:34.466Z,27.6
2017-05-06T09:25:34.511Z,27.6
2017-05-06T09:26:33.899Z,27.6
2017-05-06T09:27:34.334Z,27.7
2017-05-06T09:28:34.758Z,27.6
2017-05-06T09:29:34.771Z,27.7
2017-05-06T09:30:34.863Z,27.6
2017-05-06T09:31:34.960Z,27.6
2017-05-06T09:32:35.290Z,27.7
2017-05-06T09:33:33.996Z,27.7
2017-05-06T09:34:34.074Z,27.7
2017-05-06T09:35:34.016Z,27.7
2017-05-06T09:36:35.144Z,27.7
2017-05-06T09:37:35.192Z,27.7
2017-05-06T09:38:34.521Z,27.7
2017-05-06T09:39:35.296Z,27.7
2017-05-06T09:40:34.151Z,27.7
2017-05-06T09:41:35.392Z,27.7
2017-05-06T09:42:34.266Z,27.7
2017-05-06T09:43:35.609Z,27.7
2017-05-06T09:44:35.753Z,27.7
2017-05-06T09:45:35.513Z,27.7
2017-05-06T09:46:34.511Z,27.7
2017-05-06T09:47:35.680Z,27.7
2017-05-06T09:48:34.691Z,27.6
2017-05-06T09:49:34.638Z,27.6
2017-05-06T09:50:36.028Z,27.6
2017-05-06T09:51:35.780Z,27.6
2017-05-06T09:52:35.835Z,27.6
2017-05-06T09:53:34.859Z,27.7
2017-05-06T09:54:34.824Z,27.7
2017-05-06T09:55:34.849Z,27.6
2017-05-06T09:56:36.322Z,27.6
2017-05-06T09:57:35.090Z,27.7
2017-05-06T09:58:35.102Z,27.7
2017-05-06T09:59:36.192Z,27.7
2017-05-06T10:00:36.359Z,27.7
2017-05-06T10:01:35.343Z,27.7
2017-05-06T10:02:35.629Z,27.7
2017-05-06T10:03:36.482Z,27.7
2017-05-06T10:04:35.492Z,27.7
2017-05-06T10:05:35.485Z,27.7
2017-05-06T10:06:35.590Z,27.7
2017-05-06T10:07:36.744Z,27.7
2017-05-06T10:08:37.186Z,27.7
2017-05-06T10:09:36.892Z,27.7
2017-05-06T10:10:36.980Z,27.7
2017-05-06T10:11:37.024Z,27.7
2017-05-06T10:12:35.999Z,27.7
2017-05-06T10:13:36.048Z,27.7
2017-05-06T10:14:37.430Z,27.7
2017-05-06T10:15:36.195Z,27.7
2017-05-06T10:16:36.299Z,27.7
2017-05-06T10:17:37.390Z,27.7
2017-05-06T10:18:36.337Z,27.7
2017-05-06T10:19:37.499Z,27.7
2017-05-06T10:20:36.828Z,27.7
2017-05-06T10:21:37.603Z,27.7
2017-05-06T10:22:36.686Z,27.7
2017-05-06T10:23:36.721Z,27.7
2017-05-06T10:24:36.819Z,27.7
2017-05-06T10:25:37.881Z,27.7
2017-05-06T10:26:38.138Z,27.7
2017-05-06T10:27:36.802Z,27.7
2017-05-06T10:28:38.055Z,27.7
2017-05-06T10:29:37.561Z,27.8
2017-05-06T10:30:38.699Z,27.8
2017-05-06T10:31:38.187Z,27.8
2017-05-06T10:32:38.467Z,27.8
2017-05-06T10:33:37.188Z,27.8
2017-05-06T10:34:37.352Z,27.8
2017-05-06T10:35:37.400Z,27.7
2017-05-06T10:36:37.406Z,27.8
2017-05-06T10:37:39.062Z,27.7
2017-05-06T10:38:38.788Z,27.7
2017-05-06T10:39:38.522Z,27.7
2017-05-06T10:40:38.508Z,27.7
2017-05-06T10:41:38.668Z,27.7
2017-05-06T10:42:37.606Z,27.7
2017-05-06T10:43:37.742Z,27.7
2017-05-06T10:44:38.052Z,27.7
2017-05-06T10:45:40.119Z,27.7
2017-05-06T10:46:38.915Z,27.7
2017-05-06T10:47:38.952Z,27.8
2017-05-06T10:48:39.024Z,27.7
2017-05-06T10:49:37.951Z,27.4
2017-05-06T10:50:38.358Z,27
2017-05-06T10:51:38.108Z,26.6
2017-05-06T10:52:39.161Z,26.2
2017-05-06T10:53:38.239Z,25.8
2017-05-06T10:54:38.253Z,25.2
2017-05-06T10:55:39.413Z,24.7
2017-05-06T10:56:45.410Z,24.1
2017-05-06T10:57:39.535Z,23.7
2017-05-06T10:58:38.447Z,23.3
2017-05-06T10:59:38.585Z,22.9
2017-05-06T11:00:39.763Z,23
2017-05-06T11:01:38.830Z,23.3
2017-05-06T11:02:40.223Z,23.5
2017-05-06T11:03:39.506Z,23.8
2017-05-06T11:04:39.771Z,24.1
2017-05-06T11:05:39.007Z,24.3
2017-05-06T11:06:40.139Z,24.6
2017-05-06T11:07:39.129Z,24.8
2017-05-06T11:08:39.503Z,25
2017-05-06T11:09:40.274Z,25.2
2017-05-06T11:10:40.203Z,25.3
2017-05-06T11:11:40.294Z,25.5
2017-05-06T11:12:39.301Z,25.6
2017-05-06T11:13:40.499Z,25.7
2017-05-06T11:14:40.465Z,25.8
2017-05-06T11:15:39.628Z,25.9
2017-05-06T11:16:40.636Z,26
2017-05-06T11:17:40.141Z,26.1
2017-05-06T11:18:40.781Z,26.2
2017-05-06T11:19:39.855Z,26.3
2017-05-06T11:20:41.139Z,26.3
2017-05-06T11:21:40.010Z,26.4
2017-05-06T11:22:39.938Z,26.5
2017-05-06T11:23:41.147Z,26.5
2017-05-06T11:24:41.178Z,26.6
2017-05-06T11:25:40.209Z,26.6
2017-05-06T11:26:40.528Z,26.6
2017-05-06T11:27:40.920Z,26.7
2017-05-06T11:28:41.604Z,26.8
2017-05-06T11:29:41.239Z,26.9
2017-05-06T11:30:41.725Z,26.1
2017-05-06T11:31:40.596Z,25.1
2017-05-06T11:32:42.071Z,24.1
2017-05-06T11:33:41.756Z,23.2
2017-05-06T11:34:41.857Z,22.5
2017-05-06T11:35:41.870Z,21.8
2017-05-06T11:36:42.489Z,21.2
2017-05-06T11:37:41.884Z,20.7
2017-05-06T11:38:42.229Z,20.2
2017-05-06T11:39:42.007Z,19.8
2017-05-06T11:40:41.954Z,19.5
2017-05-06T11:41:41.993Z,19.1
2017-05-06T11:42:42.137Z,18.9
2017-05-06T11:43:42.161Z,18.6
2017-05-06T11:44:42.514Z,18.5
2017-05-06T11:45:42.363Z,18.4
2017-05-06T11:46:41.299Z,18.2
2017-05-06T11:47:41.270Z,18.1
2017-05-06T11:48:42.565Z,18
2017-05-06T11:49:41.503Z,17.8
2017-05-06T11:50:41.823Z,17.7
2017-05-06T11:51:41.521Z,17.5
2017-05-06T11:52:43.373Z,17.3
2017-05-06T11:53:42.750Z,17.2
2017-05-06T11:54:42.818Z,17.1
2017-05-06T11:55:41.789Z,16.9
2017-05-06T11:56:42.229Z,16.8
2017-05-06T11:57:42.045Z,16.7
2017-05-06T11:58:42.012Z,16.6
2017-05-06T11:59:43.082Z,16.5
2017-05-06T12:00:43.194Z,16.3
2017-05-06T12:01:43.134Z,16.3
2017-05-06T12:02:42.501Z,16.2
2017-05-06T12:03:42.124Z,16.1
2017-05-06T12:04:42.237Z,16
2017-05-06T12:05:42.286Z,16
2017-05-06T12:06:45.311Z,15.9
2017-05-06T12:07:42.407Z,15.9
2017-05-06T12:08:43.433Z,15.9
2017-05-06T12:09:43.520Z,15.9
2017-05-06T12:10:42.472Z,16
2017-05-06T12:11:43.562Z,16
2017-05-06T12:12:42.574Z,16.1
2017-05-06T12:13:43.786Z,16.2
2017-05-06T12:14:44.168Z,16.2
2017-05-06T12:15:43.943Z,16.2
2017-05-06T12:16:42.879Z,16.2
2017-05-06T12:17:42.835Z,16.1
2017-05-06T12:18:42.938Z,16.1
2017-05-06T12:19:45.260Z,16.1
2017-05-06T12:20:44.420Z,16.1
2017-05-06T12:21:44.120Z,16.2
2017-05-06T12:22:43.052Z,16.3
2017-05-06T12:23:43.141Z,16.5
2017-05-06T12:24:43.943Z,16.7
2017-05-06T12:25:43.910Z,16.9
2017-05-06T12:26:44.631Z,17
2017-05-06T12:27:43.427Z,17.1
2017-05-06T12:28:43.494Z,17.1
2017-05-06T12:29:43.479Z,17.2
2017-05-06T12:30:45.886Z,17.2
2017-05-06T12:31:43.514Z,17.4
2017-05-06T12:32:45.061Z,17.5
2017-05-06T12:33:44.690Z,17.7
2017-05-06T12:34:43.696Z,17.9
2017-05-06T12:35:44.804Z,18
2017-05-06T12:36:44.789Z,18.2
2017-05-06T12:37:44.830Z,18.4
2017-05-06T12:38:45.237Z,18.6
2017-05-06T12:39:43.925Z,18.8
2017-05-06T12:40:45.076Z,19
2017-05-06T12:41:45.121Z,19.1
2017-05-06T12:42:44.040Z,19.3
2017-05-06T12:43:44.110Z,19.5
2017-05-06T12:44:44.508Z,19.6
2017-05-06T12:45:45.339Z,19.7
2017-05-06T12:46:44.349Z,19.9
2017-05-06T12:47:44.425Z,20
2017-05-06T12:48:45.481Z,20.2
2017-05-06T12:49:45.243Z,20.3
2017-05-06T12:50:45.946Z,20.4
2017-05-06T12:51:44.536Z,20.6
2017-05-06T12:52:44.715Z,20.7
2017-05-06T12:53:44.781Z,20.8
2017-05-06T12:54:44.912Z,20.9
2017-05-06T12:55:45.888Z,21
2017-05-06T12:56:45.104Z,21.1
2017-05-06T12:57:46.590Z,21.2
2017-05-06T12:58:46.035Z,21.3
2017-05-06T12:59:45.041Z,21.4
2017-05-06T13:00:46.090Z,21.5
2017-05-06T13:01:45.074Z,21.6
2017-05-06T13:02:46.693Z,21.7
2017-05-06T13:03:45.219Z,21.7
2017-05-06T13:04:45.299Z,21.8
2017-05-06T13:05:46.379Z,21.9
2017-05-06T13:06:45.357Z,21.9
2017-05-06T13:07:46.052Z,22
2017-05-06T13:08:46.817Z,22.1
2017-05-06T13:09:46.543Z,22.1
2017-05-06T13:10:45.607Z,22.2
2017-05-06T13:11:46.605Z,22.2
2017-05-06T13:12:46.627Z,22.3
2017-05-06T13:13:45.722Z,22.3
2017-05-06T13:14:47.024Z,22.4
2017-05-06T13:15:46.782Z,22.4
2017-05-06T13:16:46.804Z,22.4
2017-05-06T13:17:46.942Z,22.5
2017-05-06T13:18:47.047Z,22.5
2017-05-06T13:19:45.904Z,22.6
2017-05-06T13:20:47.352Z,22.6
2017-05-06T13:21:47.176Z,22.6
2017-05-06T13:22:46.119Z,22.7
2017-05-06T13:23:47.196Z,22.7